Airfield :
LOGIN :

Register | Disclaimer

   EN    FR    IT 

 










Legend :    VFR   Marginal VFR   IFR   Intensive IFR   Very Intensive IFR
Visi :
Ceiling :
>= 8 km
>= 3000ft
5 to 8 km
1000 to 3000 ft
1500m to 5 km
500 to 1000 ft
800 to 1500m
200 to 500 ft
< 800m
< 200 ft
Symbols :   Thunderstorms  Fog  Heavy snow  Heavy precipitations  Wind > 20 kt
SIGMETs :     Misc.  Thunderstorms  Icing  Turbulence  Mountain Waves  Volcanic Ashes






- Airport Elevation : 913 ft


LFSX - Luxeuil

CURRENT METAR :
  • 250830Z AUTO 00000KT 5000 BR NSC M04/M05 Q1033

EXPIRED METARs :
  • 250800Z AUTO 27002KT 7000 NSC M05/M06 Q1033
  • 250730Z AUTO 26001KT 8000 ////// M05/M06 Q1033
  • 250700Z AUTO 00000KT 7000 ////// M05/M06 Q1032
  • 250630Z AUTO 00000KT 8000 NSC M05/M06 Q1032
  • 250600Z AUTO 00000KT 6000 NSC M06/M06 Q1032

TAF TAF LFSX
Valid from the 25 at 09:00 until the 26 at 09:00 UTC


250800Z 2509/2609 VRB02KT 8000 NSC
BECMG 2602/2604 3000 BR OVC005
PROB40
TEMPO 2603/2606 0300 FZFG VV///



MET'MAP, your aeronautical weather chart ! - Copyright ORBIFLY December 2007 - Disclaimer

ORBIFLY MET'MAP TEAM :

Programming & Development : Alexandra Zaïnal
Original concept : Baudouin d'Aumeries
Technical & hardware support : Manuel Goepfert
Assistance : Marc-Olivier Méhu

Contact : metmap@orbifly.com




SOURCES & CREDITS :

   NOAA